| time (UTC) | temp F | wind direction | speed MPH | gust MPH | rain 1hr in | rain 24hr in | rain mn in | humidity % | barometer mb |
| 20260508064732 | 46 | 340 | 4.0 | 6.0 | 0.00 | 0.00 | 0.00 | 49 | 1026.7 |
| 20260508062732 | 47 | 348 | 3.0 | 5.0 | 0.00 | 0.00 | 0.00 | 50 | 1026.5 |
| 20260508060733 | 46 | 360 | 3.0 | 5.0 | 0.00 | 0.00 | 0.00 | 55 | 1026.4 |
| 20260508054733 | 46 | 42 | 3.0 | 6.0 | 0.00 | 0.00 | 0.00 | 56 | 1026.0 |
| 20260508052733 | 44 | 27 | 4.0 | 7.0 | 0.00 | 0.00 | 0.00 | 59 | 1025.8 |
| 20260508050732 | 44 | 12 | 6.0 | 9.0 | 0.00 | 0.00 | 0.00 | 62 | 1025.5 |
| 20260508044733 | 43 | 21 | 5.0 | 9.0 | 0.00 | 0.00 | 0.00 | 64 | 1025.3 |
| 20260508042732 | 43 | 22 | 8.0 | 13.0 | 0.00 | 0.00 | 0.00 | 65 | 1025.1 |
| 20260508040732 | 42 | 16 | 8.0 | 10.0 | 0.00 | 0.00 | 0.00 | 73 | 1024.9 |
| 20260508034732 | 41 | 12 | 7.0 | 10.0 | 0.00 | 0.00 | 0.00 | 76 | 1024.8 |
| 20260508032732 | 40 | 7 | 8.0 | 11.0 | 0.00 | 0.00 | 0.00 | 75 | 1024.7 |
| 20260508030733 | 39 | 2 | 9.0 | 11.0 | 0.00 | 0.00 | 0.00 | 78 | 1024.5 |
| 20260508024732 | 39 | 356 | 9.0 | 12.0 | 0.00 | 0.00 | 0.00 | 79 | 1024.3 |
| 20260508022731 | 38 | 360 | 9.0 | 11.0 | 0.00 | 0.00 | 0.00 | 79 | 1024.0 |
| 20260508020732 | 39 | 360 | 9.0 | 11.0 | 0.00 | 0.00 | 0.00 | 78 | 1023.7 |
| 20260508014732 | 40 | 355 | 11.0 | 13.0 | 0.00 | 0.00 | 0.00 | 75 | 1023.5 |
| 20260508012731 | 40 | 353 | 10.0 | 12.0 | 0.00 | 0.00 | 0.00 | 74 | 1023.3 |
| 20260508010732 | 40 | 354 | 8.0 | 10.0 | 0.00 | 0.00 | 0.00 | 75 | 1023.3 |
| 20260508004732 | 40 | 359 | 6.0 | 9.0 | 0.00 | 0.00 | 0.00 | 76 | 1023.1 |
| 20260508002732 | 41 | 348 | 8.0 | 10.0 | 0.00 | 0.00 | 0.00 | 71 | 1022.8 |
| 20260508000733 | 41 | 340 | 11.0 | 13.0 | 0.00 | 0.00 | 0.00 | 69 | 1022.5 |
| 20260507234732 | 41 | 338 | 10.0 | 12.0 | 0.00 | 0.00 | 0.00 | 71 | 1022.3 |
| 20260507232731 | 42 | 335 | 10.0 | 13.0 | 0.00 | 0.00 | 0.00 | 68 | 1022.1 |
| 20260507230732 | 42 | 333 | 11.0 | 13.0 | 0.00 | 0.00 | 0.00 | 66 | 1021.7 |
| 20260507224731 | 42 | 337 | 9.0 | 12.0 | 0.00 | 0.00 | 0.00 | 64 | 1021.6 |
| 20260507222732 | 43 | 331 | 10.0 | 12.0 | 0.00 | 0.00 | 0.00 | 63 | 1021.5 |
| 20260507220731 | 43 | 334 | 13.0 | 16.0 | 0.00 | 0.00 | 0.00 | 62 | 1021.2 |
| 20260507214731 | 44 | 334 | 15.0 | 21.0 | 0.00 | 0.00 | 0.00 | 60 | 1020.9 |
| 20260507212730 | 44 | 334 | 15.0 | 20.0 | 0.00 | 0.00 | 0.00 | 57 | 1020.6 |
| 20260507210730 | 44 | 334 | 15.0 | 20.0 | 0.00 | 0.00 | 0.00 | 56 | 1020.4 |
| 20260507204731 | 44 | 337 | 14.0 | 21.0 | 0.00 | 0.00 | 0.00 | 56 | 1020.1 |
| 20260507202731 | 45 | 339 | 13.0 | 17.0 | 0.00 | 0.00 | 0.00 | 51 | 1019.9 |
| 20260507200732 | 45 | 333 | 13.0 | 18.0 | 0.00 | 0.00 | 0.00 | 53 | 1019.7 |
| 20260507194730 | 45 | 326 | 12.0 | 15.0 | 0.00 | 0.00 | 0.00 | 56 | 1019.5 |
| 20260507192730 | 46 | 326 | 13.0 | 16.0 | 0.00 | 0.00 | 0.00 | 47 | 1019.1 |
| 20260507190730 | 46 | 323 | 13.0 | 18.0 | 0.00 | 0.00 | 0.00 | 46 | 1019.0 |
| 20260507184730 | 46 | 319 | 13.0 | 17.0 | 0.00 | 0.00 | 0.00 | 49 | 1018.7 |
| 20260507182729 | 46 | 316 | 11.0 | 14.0 | 0.00 | 0.00 | 0.00 | 48 | 1018.5 |
| 20260507180729 | 47 | 313 | 11.0 | 14.0 | 0.00 | 0.00 | 0.00 | 44 | 1018.4 |
| 20260507174730 | 48 | 312 | 11.0 | 15.0 | 0.00 | 0.00 | 0.00 | 40 | 1018.3 |
| 20260507172729 | 48 | 320 | 10.0 | 15.0 | 0.00 | 0.00 | 0.00 | 40 | 1018.1 |
| 20260507170729 | 49 | 319 | 12.0 | 18.0 | 0.00 | 0.00 | 0.00 | 39 | 1017.9 |
| 20260507164730 | 49 | 318 | 13.0 | 19.0 | 0.00 | 0.00 | 0.00 | 41 | 1017.8 |
| 20260507162730 | 49 | 310 | 12.0 | 19.0 | 0.00 | 0.00 | 0.00 | 46 | 1017.7 |
| 20260507160730 | 49 | 296 | 14.0 | 21.0 | 0.00 | 0.00 | 0.00 | 49 | 1017.6 |
| 20260507154729 | 50 | 287 | 15.0 | 21.0 | 0.00 | 0.00 | 0.00 | 42 | 1017.4 |
| 20260507152729 | 51 | 284 | 12.0 | 20.0 | 0.00 | 0.00 | 0.00 | 40 | 1017.2 |
| 20260507150731 | 51 | 283 | 11.0 | 17.0 | 0.00 | 0.00 | 0.00 | 38 | 1017.2 |
| 20260507144730 | 51 | 282 | 13.0 | 19.0 | 0.00 | 0.00 | 0.00 | 37 | 1017.2 |
| 20260507142731 | 51 | 287 | 14.0 | 19.0 | 0.00 | 0.00 | 0.00 | 33 | 1017.1 |
| 20260507140730 | 52 | 290 | 12.0 | 19.0 | 0.00 | 0.00 | 0.00 | 35 | 1017.1 |
| 20260507134730 | 50 | 286 | 15.0 | 18.0 | 0.00 | 0.00 | 0.00 | 40 | 1017.1 |
| 20260507132729 | 52 | 275 | 12.0 | 15.0 | 0.00 | 0.00 | 0.00 | 25 | 1016.9 |
| 20260507130730 | 53 | 268 | 9.0 | 12.0 | 0.00 | 0.00 | 0.00 | 23 | 1016.9 |
| 20260507124729 | 53 | 285 | 7.0 | 11.0 | 0.00 | 0.00 | 0.00 | 25 | 1016.9 |
| 20260507122728 | 52 | 289 | 8.0 | 11.0 | 0.00 | 0.00 | 0.00 | 27 | 1016.8 |
| 20260507120730 | 50 | 288 | 8.0 | 11.0 | 0.00 | 0.00 | 0.00 | 29 | 1016.8 |
| 20260507114729 | 51 | 288 | 8.0 | 11.0 | 0.00 | 0.00 | 0.00 | 30 | 1016.8 |
| 20260507112728 | 51 | 290 | 8.0 | 11.0 | 0.00 | 0.00 | 0.00 | 31 | 1016.8 |
| 20260507110728 | 50 | 297 | 8.0 | 11.0 | 0.00 | 0.00 | 0.00 | 35 | 1016.7 |
| 20260507104728 | 49 | 298 | 8.0 | 12.0 | 0.00 | 0.00 | 0.00 | 38 | 1016.6 |
| 20260507102728 | 51 | 269 | 6.0 | 11.0 | 0.00 | 0.00 | 0.00 | 38 | 1016.6 |
| 20260507100728 | 49 | 284 | 6.0 | 9.0 | 0.00 | 0.00 | 0.00 | 41 | 1016.3 |
| 20260507092728 | 51 | 146 | 2.0 | 4.0 | 0.00 | 0.00 | 0.00 | 32 | 1016.2 |
| 20260507090729 | 48 | 127 | 3.0 | 6.0 | 0.00 | 0.00 | 0.00 | 37 | 1016.2 |
| 20260507084728 | 49 | 96 | 3.0 | 5.0 | 0.00 | 0.00 | 0.00 | 35 | 1016.2 |
| 20260507082728 | 48 | 89 | 6.0 | 8.0 | 0.00 | 0.00 | 0.00 | 36 | 1016.2 |
| 20260507080728 | 48 | 92 | 5.0 | 7.0 | 0.00 | 0.00 | 0.00 | 35 | 1016.2 |
| 20260507074728 | 49 | 91 | 7.0 | 9.0 | 0.00 | 0.00 | 0.00 | 36 | 1016.2 |
| 20260507072728 | 48 | 102 | 7.0 | 11.0 | 0.00 | 0.00 | 0.00 | 40 | 1016.2 |
| 20260507070727 | 48 | 75 | 7.0 | 10.0 | 0.00 | 0.00 | 0.00 | 38 | 1016.2 |